createdAt,value
2019-01-21T01:20:43.000Z,0.00
2019-01-21T01:51:11.619Z,0.00
2019-01-21T01:52:30.086Z,0.00
2019-01-21T03:18:09.538Z,0.00
2019-01-21T03:27:12.667Z,0.00
2019-01-21T04:19:42.728Z,0.00
2019-01-21T05:13:45.506Z,0.00
2019-01-21T05:15:03.608Z,0.00
2019-01-21T05:22:08.980Z,0.00
2019-01-21T05:22:55.990Z,0.00
2019-01-21T05:59:07.619Z,0.00
2019-01-21T06:02:11.054Z,0.00
2019-01-21T06:06:35.089Z,0.00
2019-01-21T06:06:59.116Z,0.00
2019-01-21T06:08:16.798Z,0.00
2019-01-21T06:35:01.623Z,0.00
2019-01-21T06:36:14.738Z,0.00
2019-01-21T06:40:01.511Z,0.00
2019-01-21T06:44:12.564Z,0.00
2019-01-21T07:05:28.709Z,0.00
2019-01-21T07:07:51.756Z,0.00
2019-01-21T07:08:46.786Z,5.63
2019-01-21T07:09:48.051Z,5.63
2019-01-21T07:10:50.262Z,5.63
2019-01-21T07:11:46.862Z,5.63
2019-01-21T07:12:48.785Z,5.63
2019-01-21T07:13:47.003Z,5.63
2019-01-21T07:14:50.766Z,5.63
2019-01-21T07:15:51.667Z,5.63
2019-01-21T07:16:49.937Z,5.63
2019-01-21T07:17:47.726Z,5.63
2019-01-21T07:18:49.765Z,11.25
2019-01-21T07:19:54.811Z,11.25
2019-01-21T07:20:48.271Z,11.25
2019-01-21T07:21:50.310Z,11.25
2019-01-21T07:22:49.798Z,11.25
2019-01-21T07:23:51.220Z,11.25
2019-01-21T07:24:48.928Z,11.25
2019-01-21T07:26:13.215Z,16.88
2019-01-21T07:26:51.266Z,16.88
2019-01-21T07:27:51.730Z,16.88
2019-01-21T07:28:49.574Z,16.88
2019-01-21T07:29:53.214Z,16.88
2019-01-21T07:31:07.216Z,22.50
2019-01-21T07:32:12.760Z,22.50
2019-01-21T07:32:51.218Z,22.50
2019-01-21T07:33:52.219Z,22.50
2019-01-21T07:34:52.263Z,28.13
2019-01-21T07:35:53.223Z,28.13
2019-01-21T07:36:56.716Z,28.13
2019-01-21T07:37:55.733Z,28.13
2019-01-21T07:38:51.729Z,28.13
2019-01-21T07:40:13.261Z,28.13
2019-01-21T07:40:51.419Z,33.75
2019-01-21T07:41:54.258Z,33.75
2019-01-21T07:42:53.760Z,33.75
2019-01-21T07:43:56.758Z,33.75
2019-01-21T07:44:55.757Z,33.75
2019-01-21T07:45:52.256Z,33.75
2019-01-21T07:47:09.243Z,39.38
2019-01-21T07:47:52.705Z,39.38
2019-01-21T07:48:54.263Z,39.38
2019-01-21T07:49:53.733Z,39.38
2019-01-21T07:50:55.721Z,45.00
2019-01-21T07:51:53.066Z,45.00
2019-01-21T07:52:53.285Z,50.63
2019-01-21T07:53:55.821Z,50.63
2019-01-21T07:55:09.263Z,50.63
2019-01-21T07:55:58.087Z,50.63
2019-01-21T07:56:57.759Z,50.63
2019-01-21T07:57:55.021Z,56.25
2019-01-21T07:58:56.735Z,56.25
2019-01-21T08:00:10.261Z,61.88
2019-01-21T08:00:57.256Z,61.88
2019-01-21T08:01:58.844Z,61.88
2019-01-21T08:03:02.805Z,61.88
2019-01-21T08:03:58.764Z,61.88
2019-01-21T08:04:56.707Z,61.88
2019-01-21T08:05:59.214Z,61.88
2019-01-21T08:06:58.588Z,67.50
2019-01-21T08:07:58.065Z,67.50
2019-01-21T08:08:57.779Z,73.13
2019-01-21T08:09:58.802Z,73.13
2019-01-21T08:10:57.759Z,78.75
2019-01-21T08:12:00.858Z,78.75
2019-01-21T08:12:58.266Z,78.75
2019-01-21T08:14:19.213Z,84.38
2019-01-21T08:14:56.918Z,84.38
2019-01-21T08:15:58.725Z,84.38
2019-01-21T08:17:00.073Z,84.38
2019-01-21T08:17:59.466Z,84.38
2019-01-21T08:18:57.834Z,84.38
2019-01-21T08:19:59.992Z,84.38
2019-01-21T08:21:00.717Z,90.00
2019-01-21T08:22:01.784Z,95.63
2019-01-21T08:23:00.261Z,101.25
2019-01-21T08:24:00.572Z,101.25
2019-01-21T08:24:58.766Z,106.88
2019-01-21T08:26:01.466Z,112.50
2019-01-21T08:27:00.757Z,112.50
2019-01-21T08:28:02.761Z,112.50
2019-01-21T08:29:01.323Z,118.13
2019-01-21T08:29:59.554Z,123.75
2019-01-21T08:31:01.258Z,123.75
2019-01-21T08:32:15.757Z,123.75
2019-01-21T08:33:02.711Z,123.75
2019-01-21T08:34:01.758Z,123.75
2019-01-21T08:35:01.119Z,129.38
2019-01-21T08:36:22.573Z,129.38
2019-01-21T08:37:00.633Z,129.38
2019-01-21T08:38:02.761Z,129.38
2019-01-21T08:39:00.963Z,129.38
2019-01-21T08:40:04.219Z,129.38
2019-01-21T08:41:06.077Z,129.38
2019-01-21T08:42:03.541Z,140.63
2019-01-21T08:43:05.885Z,146.25
2019-01-21T08:44:02.751Z,151.88
2019-01-21T08:45:03.797Z,163.13
2019-01-21T08:46:04.214Z,168.75
2019-01-21T08:47:05.219Z,168.75
2019-01-21T08:48:11.267Z,168.75
2019-01-21T08:49:03.249Z,168.75
2019-01-21T08:50:10.757Z,157.50
2019-01-21T08:51:20.623Z,163.13
2019-01-21T08:52:06.758Z,168.75
2019-01-21T08:53:03.201Z,168.75
2019-01-21T08:54:11.259Z,174.38
2019-01-21T08:55:05.261Z,185.63
2019-01-21T08:56:07.275Z,196.88
2019-01-21T08:57:11.758Z,208.13
2019-01-21T08:58:06.602Z,213.75
2019-01-21T08:59:07.254Z,230.63
2019-01-21T09:00:08.263Z,241.88
2019-01-21T09:01:07.299Z,253.13
2019-01-21T09:02:08.212Z,264.38
2019-01-21T09:03:14.524Z,286.88
2019-01-21T09:04:06.758Z,326.25
2019-01-21T09:05:09.005Z,376.88
2019-01-21T09:06:05.362Z,450.00
2019-01-21T09:07:07.259Z,534.38
2019-01-21T09:08:06.981Z,697.50
2019-01-21T09:09:05.920Z,1192.50
2019-01-21T09:10:10.809Z,2593.13
2019-01-21T09:11:10.210Z,2542.50
2019-01-21T09:12:08.258Z,2469.38
2019-01-21T09:13:08.260Z,2289.38
2019-01-21T09:14:10.306Z,2576.25
2019-01-21T09:15:07.916Z,2576.25
2019-01-21T09:16:07.003Z,2840.63
2019-01-21T09:17:08.798Z,2981.25
2019-01-21T09:18:08.401Z,2880.00
2019-01-21T09:19:07.607Z,2739.38
2019-01-21T09:20:10.823Z,2806.88
2019-01-21T09:21:07.981Z,2958.75
2019-01-21T09:22:08.184Z,3178.13
2019-01-21T09:23:08.399Z,3262.50
2019-01-21T09:24:08.613Z,3105.00
2019-01-21T09:25:10.763Z,3251.25
2019-01-21T09:26:08.972Z,3256.88
2019-01-21T09:27:09.186Z,3234.38
2019-01-21T09:28:10.401Z,3155.63
2019-01-21T09:29:09.660Z,3279.38
2019-01-21T09:30:11.763Z,3043.13
2019-01-21T09:31:09.962Z,2823.75
2019-01-21T09:32:10.170Z,2649.38
2019-01-21T09:33:10.395Z,3048.75
2019-01-21T09:34:10.495Z,3009.38
2019-01-21T09:35:12.266Z,2621.25
2019-01-21T09:36:10.849Z,3076.88
2019-01-21T09:37:11.064Z,2598.75
2019-01-21T09:38:11.265Z,2109.38
2019-01-21T09:39:11.475Z,1794.38
2019-01-21T09:40:11.687Z,2385.00
2019-01-21T09:41:11.893Z,3020.63
2019-01-21T09:42:13.757Z,3301.88
2019-01-21T09:43:13.762Z,3560.63
2019-01-21T09:44:14.274Z,3425.63
2019-01-21T09:45:12.476Z,3121.88
2019-01-21T09:46:13.713Z,3296.25
2019-01-21T09:47:14.758Z,3470.63
2019-01-21T09:48:12.970Z,3515.63
2019-01-21T09:49:13.719Z,3723.75
2019-01-21T09:50:15.263Z,3532.50
2019-01-21T09:51:17.270Z,3588.75
2019-01-21T09:52:13.602Z,3723.75
2019-01-21T09:53:15.756Z,3875.63
2019-01-21T09:54:13.972Z,3931.88
2019-01-21T09:55:14.176Z,3993.75
2019-01-21T09:56:16.262Z,4033.13
2019-01-21T09:57:16.291Z,4078.13
2019-01-21T09:58:18.273Z,4100.63
2019-01-21T09:59:16.767Z,4072.50
2019-01-21T10:00:15.726Z,4134.38
2019-01-21T10:01:17.732Z,4106.25
2019-01-21T10:02:17.259Z,4123.13
2019-01-21T10:03:18.229Z,4156.88
2019-01-21T10:04:18.739Z,4162.50
2019-01-21T10:05:23.767Z,4078.13
2019-01-21T10:06:37.147Z,4140.00
2019-01-21T10:07:18.288Z,4083.75
2019-01-21T10:08:20.259Z,4123.13
2019-01-21T10:09:18.297Z,4213.13
2019-01-21T10:10:18.773Z,4263.75
2019-01-21T10:11:20.765Z,4286.25
2019-01-21T10:12:18.813Z,4235.63
2019-01-21T10:14:52.983Z,4179.38
2019-01-21T10:15:49.958Z,4207.50
2019-01-21T10:16:53.965Z,4190.63
2019-01-21T10:17:49.568Z,4038.75
2019-01-21T10:18:51.457Z,3915.00
2019-01-21T10:19:52.266Z,4134.38
2019-01-21T10:20:54.000Z,4111.88
2019-01-21T10:21:50.355Z,4179.38
2019-01-21T10:22:52.753Z,4134.38
2019-01-21T10:23:52.950Z,3976.88
2019-01-21T10:24:52.970Z,3948.75
2019-01-21T10:25:51.054Z,4207.50
2019-01-21T10:26:51.452Z,4207.50
2019-01-21T10:27:55.244Z,4224.38
2019-01-21T10:28:54.456Z,4235.63
2019-01-21T10:29:53.926Z,4263.75
2019-01-21T10:30:54.484Z,4230.00
2019-01-21T10:31:59.439Z,4252.50
2019-01-21T10:32:54.989Z,4303.13
2019-01-21T10:34:04.955Z,4275.00
2019-01-21T10:34:53.451Z,4404.38
2019-01-21T10:35:58.452Z,4471.88
2019-01-21T10:36:55.003Z,4466.25
2019-01-21T10:37:54.997Z,4455.00
2019-01-21T10:38:55.732Z,4404.38
2019-01-21T10:39:55.740Z,4342.50
2019-01-21T10:40:59.737Z,4376.25
2019-01-21T10:41:56.008Z,4398.75
2019-01-21T10:42:58.420Z,4376.25
2019-01-21T10:43:54.947Z,4359.38
2019-01-21T10:44:54.607Z,4421.25
2019-01-21T10:45:56.498Z,4449.38
2019-01-21T10:46:58.501Z,4432.50
2019-01-21T10:47:59.002Z,4432.50
2019-01-21T10:48:57.001Z,4443.75
2019-01-21T10:49:57.479Z,4488.75
2019-01-21T10:50:56.591Z,4500.00
2019-01-21T10:51:57.529Z,4505.63
2019-01-21T10:52:56.010Z,4511.25
2019-01-21T10:53:56.577Z,4494.38
2019-01-21T10:54:58.959Z,4511.25
2019-01-21T10:55:58.536Z,4522.50
2019-01-21T10:56:56.907Z,4545.00
2019-01-21T10:57:57.603Z,4466.25
2019-01-21T10:59:01.981Z,4449.38
2019-01-21T10:59:59.059Z,4516.88
2019-01-21T11:00:59.707Z,4449.38
2019-01-21T11:02:13.506Z,4393.13
2019-01-21T11:03:02.645Z,4398.75
2019-01-21T11:04:00.977Z,4365.00
2019-01-21T11:05:00.339Z,4410.00
2019-01-21T11:06:00.510Z,4404.38
2019-01-21T11:07:02.514Z,4443.75
2019-01-21T11:08:00.489Z,4398.75
2019-01-21T11:09:01.006Z,4466.25
2019-01-21T11:09:59.232Z,4590.00
2019-01-21T11:11:01.998Z,4668.75
2019-01-21T11:12:01.509Z,4635.00
2019-01-21T11:13:03.502Z,4612.50
2019-01-21T11:14:03.501Z,4612.50
2019-01-21T11:15:00.189Z,4595.63
2019-01-21T11:16:00.406Z,4573.13
2019-01-21T11:17:02.502Z,4516.88
2019-01-21T11:18:01.120Z,4477.50
2019-01-21T11:19:00.936Z,4460.63
2019-01-21T11:20:04.171Z,4471.88
2019-01-21T11:21:02.379Z,4488.75
2019-01-21T11:22:02.959Z,4533.75
2019-01-21T11:23:03.526Z,4528.13
2019-01-21T11:24:01.847Z,4522.50
2019-01-21T11:25:03.065Z,4522.50
2019-01-21T11:26:06.006Z,4505.63
2019-01-21T11:27:05.017Z,4522.50
2019-01-21T11:28:05.473Z,4522.50
2019-01-21T11:29:02.847Z,4516.88
2019-01-21T11:30:02.952Z,4455.00
2019-01-21T11:31:05.010Z,4471.88
2019-01-21T11:32:07.009Z,4466.25
2019-01-21T11:33:06.558Z,4483.13
2019-01-21T11:34:04.465Z,4438.13
2019-01-21T11:35:05.517Z,4398.75
2019-01-21T11:36:04.092Z,4308.75
2019-01-21T11:37:06.012Z,4291.88
2019-01-21T11:38:06.011Z,4325.63
2019-01-21T11:39:06.570Z,4353.75
2019-01-21T11:40:07.705Z,4393.13
2019-01-21T11:41:08.535Z,4370.63
2019-01-21T11:42:14.468Z,4393.13
2019-01-21T11:43:07.009Z,4393.13
2019-01-21T11:44:05.575Z,4381.88
2019-01-21T11:45:06.461Z,4381.88
2019-01-21T11:46:05.972Z,4381.88
2019-01-21T11:47:12.028Z,4331.25
2019-01-21T11:48:08.030Z,4325.63
2019-01-21T11:49:06.388Z,4320.00
2019-01-21T11:50:10.665Z,4297.50
2019-01-21T11:51:07.086Z,4241.25
2019-01-21T11:52:29.511Z,4140.00
2019-01-21T11:53:07.967Z,4162.50
2019-01-21T11:54:23.056Z,4235.63
2019-01-21T11:55:14.020Z,4320.00
2019-01-21T11:56:07.735Z,4325.63
2019-01-21T11:57:09.513Z,4320.00
2019-01-21T11:58:08.963Z,4320.00
2019-01-21T11:59:10.032Z,4280.63
2019-01-21T12:00:10.014Z,4286.25
2019-01-21T12:01:10.725Z,4269.38
2019-01-21T12:02:25.574Z,4269.38
2019-01-21T12:03:09.172Z,4331.25
2019-01-21T12:04:13.018Z,4336.88
2019-01-21T12:05:11.496Z,4359.38
2019-01-21T12:06:10.483Z,4314.38
2019-01-21T12:07:17.014Z,4325.63
2019-01-21T12:08:11.809Z,4303.13
2019-01-21T12:09:10.497Z,4286.25
2019-01-21T12:10:10.647Z,4235.63
2019-01-21T12:11:10.752Z,4185.00
2019-01-21T12:12:12.005Z,4140.00
2019-01-21T12:13:15.971Z,4123.13
2019-01-21T12:14:11.335Z,4111.88
2019-01-21T12:15:11.584Z,4123.13
2019-01-21T12:16:19.511Z,4140.00
2019-01-21T12:17:15.558Z,4134.38
2019-01-21T12:18:15.005Z,4089.38
2019-01-21T12:19:19.070Z,4095.00
2019-01-21T12:20:17.124Z,4095.00
2019-01-21T12:21:17.121Z,4123.13
2019-01-21T12:22:17.014Z,4095.00
2019-01-21T12:23:15.974Z,4021.88
2019-01-21T12:24:15.042Z,4027.50
2019-01-21T12:25:16.493Z,3993.75
2019-01-21T12:26:13.847Z,4027.50
2019-01-21T12:27:30.015Z,3982.50
2019-01-21T12:28:14.986Z,3937.50
2019-01-21T12:29:16.090Z,3898.13
2019-01-21T12:30:16.523Z,3875.63
2019-01-21T12:31:16.514Z,3853.13
2019-01-21T12:32:19.986Z,3886.88
2019-01-21T12:33:22.025Z,3847.50
2019-01-21T12:34:17.047Z,3847.50
2019-01-21T12:35:22.953Z,3808.13
2019-01-21T12:36:15.817Z,3757.50
2019-01-21T12:37:16.418Z,3690.00
2019-01-21T12:38:22.217Z,3718.13
2019-01-21T12:39:16.440Z,3740.63
2019-01-21T12:40:17.562Z,3712.50
2019-01-21T12:41:39.516Z,3678.75
2019-01-21T12:42:17.001Z,3706.88
2019-01-21T12:43:40.019Z,3735.00
2019-01-21T12:44:19.015Z,3757.50
2019-01-21T12:45:19.075Z,3740.63
2019-01-21T12:46:17.671Z,3701.25
2019-01-21T12:47:40.571Z,3611.25
2019-01-21T12:48:18.179Z,3622.50
2019-01-21T12:49:18.312Z,3661.88
2019-01-21T12:50:23.919Z,3684.38
2019-01-21T12:51:19.705Z,3588.75
2019-01-21T12:52:18.922Z,3555.00
2019-01-21T12:53:20.145Z,3521.25
2019-01-21T12:54:19.304Z,3481.88
2019-01-21T12:55:21.019Z,3487.50
2019-01-21T12:56:24.019Z,3414.38
2019-01-21T12:57:42.551Z,3358.13
2019-01-21T12:58:23.610Z,3341.25
2019-01-21T12:59:20.207Z,3206.25
2019-01-21T13:00:24.045Z,3172.50
2019-01-21T13:01:21.651Z,3279.38
2019-01-21T13:02:24.676Z,3301.88
2019-01-21T13:03:23.016Z,3301.88
2019-01-21T13:04:28.030Z,3324.38
2019-01-21T13:05:22.381Z,3442.50
2019-01-21T13:06:25.536Z,3465.00
2019-01-21T13:07:23.893Z,3470.63
2019-01-21T13:08:21.959Z,3465.00
2019-01-21T13:09:24.046Z,3453.75
2019-01-21T13:10:23.322Z,3453.75
2019-01-21T13:11:23.818Z,3431.25
2019-01-21T13:12:24.516Z,3425.63
2019-01-21T13:13:25.563Z,3313.13
2019-01-21T13:14:24.566Z,3251.25
2019-01-21T13:15:23.048Z,3217.50
2019-01-21T13:16:27.627Z,3189.38
2019-01-21T13:17:23.484Z,3183.75
2019-01-21T13:18:26.324Z,3150.00
2019-01-21T13:19:23.836Z,3150.00
2019-01-21T13:20:40.024Z,3110.63
2019-01-21T13:21:26.046Z,3082.50
2019-01-21T13:22:36.233Z,3082.50
2019-01-21T13:23:24.554Z,3076.88
2019-01-21T13:24:24.799Z,3060.00
2019-01-21T13:25:26.028Z,3031.88
2019-01-21T13:26:25.259Z,3009.38
2019-01-21T13:27:27.974Z,2975.63
2019-01-21T13:28:27.522Z,2992.50
2019-01-21T13:29:27.557Z,2880.00
2019-01-21T13:30:37.028Z,2857.50
2019-01-21T13:31:34.020Z,2823.75
2019-01-21T13:32:26.355Z,2885.63
2019-01-21T13:33:30.537Z,2840.63
2019-01-21T13:34:26.787Z,2801.25
2019-01-21T13:35:31.482Z,2722.50
2019-01-21T13:36:27.085Z,2666.25
2019-01-21T13:37:35.510Z,2683.13
2019-01-21T13:38:29.024Z,2660.63
2019-01-21T13:39:29.541Z,2581.88
2019-01-21T13:40:27.768Z,2576.25
2019-01-21T13:41:28.018Z,2598.75
2019-01-21T13:42:28.139Z,2598.75
2019-01-21T13:43:30.030Z,2548.13
2019-01-21T13:44:29.476Z,2486.25
2019-01-21T13:45:28.588Z,2475.00
2019-01-21T13:46:32.534Z,2463.75
2019-01-21T13:47:31.558Z,2469.38
2019-01-21T13:48:32.050Z,2430.00
2019-01-21T13:49:29.265Z,2407.50
2019-01-21T13:50:37.120Z,2396.25
2019-01-21T13:51:37.523Z,2373.75
2019-01-21T13:52:31.555Z,2340.00
2019-01-21T13:53:29.910Z,2266.88
2019-01-21T13:54:32.985Z,2210.63
2019-01-21T13:55:32.054Z,2182.50
2019-01-21T13:56:30.543Z,2131.88
2019-01-21T13:57:33.573Z,2092.50
2019-01-21T13:58:30.935Z,2036.25
2019-01-21T13:59:35.028Z,1996.88
2019-01-21T14:00:33.027Z,1901.25
2019-01-21T14:01:33.056Z,1951.88
2019-01-21T14:02:32.660Z,1985.63
2019-01-21T14:03:31.888Z,2008.13
2019-01-21T14:04:34.056Z,2036.25
2019-01-21T14:05:34.029Z,2019.38
2019-01-21T14:06:32.511Z,2008.13
2019-01-21T14:07:32.703Z,2008.13
2019-01-21T14:08:32.941Z,1996.88
2019-01-21T14:09:33.039Z,1951.88
2019-01-21T14:10:35.031Z,1918.13
2019-01-21T14:11:33.363Z,1901.25
2019-01-21T14:12:33.594Z,1873.13
2019-01-21T14:13:33.798Z,1833.75
2019-01-21T14:14:34.010Z,1805.63
2019-01-21T14:15:34.225Z,1788.75
2019-01-21T14:16:34.448Z,1777.50
2019-01-21T14:17:36.543Z,1749.38
2019-01-21T14:18:34.893Z,1732.50
2019-01-21T14:19:36.103Z,1698.75
2019-01-21T14:20:35.312Z,1665.00
2019-01-21T14:21:37.032Z,1659.38
2019-01-21T14:22:35.814Z,1642.50
2019-01-21T14:23:35.959Z,1625.63
2019-01-21T14:24:36.163Z,1580.63
2019-01-21T14:25:36.395Z,1591.88
2019-01-21T14:26:36.621Z,1591.88
2019-01-21T14:27:38.533Z,1569.38
2019-01-21T14:28:38.537Z,1546.88
2019-01-21T14:29:39.032Z,1507.50
2019-01-21T14:30:37.239Z,1513.13
2019-01-21T14:31:37.451Z,1490.63
2019-01-21T14:32:37.706Z,1485.00
2019-01-21T14:33:37.912Z,1462.50
2019-01-21T14:34:38.097Z,1456.88
2019-01-21T14:35:38.308Z,1423.13
2019-01-21T14:36:38.518Z,1389.38
2019-01-21T14:37:38.732Z,1338.75
2019-01-21T14:38:38.970Z,1321.88
2019-01-21T14:39:41.028Z,1271.25
2019-01-21T14:40:42.781Z,1248.75
2019-01-21T14:41:39.587Z,1237.50
2019-01-21T14:42:39.795Z,1209.38
2019-01-21T14:43:40.000Z,1164.38
2019-01-21T14:44:40.210Z,1153.13
2019-01-21T14:45:42.031Z,1141.88
2019-01-21T14:46:42.533Z,1125.00
2019-01-21T14:47:42.566Z,1096.88
2019-01-21T14:48:42.399Z,1074.38
2019-01-21T14:49:41.112Z,1051.88
2019-01-21T14:50:41.334Z,1051.88
2019-01-21T14:51:41.538Z,1018.13
2019-01-21T14:52:43.541Z,995.63
2019-01-21T14:53:41.856Z,956.25
2019-01-21T14:54:42.068Z,815.63
2019-01-21T14:55:42.279Z,461.25
2019-01-21T14:56:42.504Z,292.50
2019-01-21T14:57:44.530Z,264.38
2019-01-21T14:58:42.883Z,236.25
2019-01-21T14:59:44.093Z,230.63
2019-01-21T15:00:45.041Z,230.63
2019-01-21T15:01:43.503Z,225.00
2019-01-21T15:02:43.717Z,219.38
2019-01-21T15:03:43.971Z,213.75
2019-01-21T15:04:46.070Z,213.75
2019-01-21T15:05:46.045Z,208.13
2019-01-21T15:06:45.554Z,202.50
2019-01-21T15:07:46.565Z,196.88
2019-01-21T15:08:44.911Z,191.25
2019-01-21T15:09:45.218Z,208.13
2019-01-21T15:10:45.385Z,258.75
2019-01-21T15:11:46.644Z,303.75
2019-01-21T15:12:46.808Z,264.38
2019-01-21T15:13:47.558Z,247.50
2019-01-21T15:14:46.285Z,331.88
2019-01-21T15:15:46.473Z,416.25
2019-01-21T15:16:50.970Z,421.88
2019-01-21T15:17:50.592Z,399.38
2019-01-21T15:18:48.581Z,388.13
2019-01-21T15:19:49.032Z,371.25
2019-01-21T15:20:57.414Z,360.00
2019-01-21T15:21:59.164Z,331.88
2019-01-21T15:22:49.537Z,309.38
2019-01-21T15:23:50.526Z,303.75
2019-01-21T15:24:52.035Z,286.88
2019-01-21T15:25:48.253Z,275.63
2019-01-21T15:26:50.082Z,236.25
2019-01-21T15:27:49.649Z,208.13
2019-01-21T15:28:50.632Z,202.50
2019-01-21T15:29:55.552Z,213.75
2019-01-21T15:30:53.044Z,202.50
2019-01-21T15:31:49.228Z,196.88
2019-01-21T15:32:51.066Z,180.00
2019-01-21T15:33:49.544Z,135.00
2019-01-21T15:34:49.819Z,95.63
2019-01-21T15:35:51.594Z,78.75
2019-01-21T15:37:13.031Z,73.13
2019-01-21T15:37:52.086Z,67.50
2019-01-21T15:38:53.065Z,61.88
2019-01-21T15:39:52.555Z,61.88
2019-01-21T15:40:54.603Z,56.25
2019-01-21T15:41:51.086Z,56.25
2019-01-21T15:42:55.141Z,50.63
2019-01-21T15:43:53.128Z,45.00
2019-01-21T15:44:53.562Z,45.00
2019-01-21T15:45:52.047Z,39.38
2019-01-21T15:46:53.507Z,39.38
2019-01-21T15:47:56.972Z,33.75
2019-01-21T15:48:56.035Z,33.75
2019-01-21T15:50:15.075Z,33.75
2019-01-21T15:50:52.523Z,28.13
2019-01-21T15:51:54.530Z,28.13
2019-01-21T15:53:14.885Z,22.50
2019-01-21T15:53:53.496Z,22.50
2019-01-21T15:54:58.033Z,22.50
2019-01-21T15:55:53.265Z,16.88
2019-01-21T15:56:57.624Z,16.88
2019-01-21T15:57:53.609Z,16.88
2019-01-21T15:58:53.715Z,16.88
2019-01-21T15:59:53.978Z,11.25
2019-01-21T16:00:58.054Z,11.25
2019-01-21T16:01:56.073Z,11.25
2019-01-21T16:02:54.419Z,11.25
2019-01-21T16:03:54.629Z,5.63
2019-01-21T16:04:54.874Z,5.63
2019-01-21T16:05:56.538Z,5.63
2019-01-21T16:06:58.009Z,5.63
2019-01-21T16:08:24.058Z,5.63
2019-01-21T16:09:02.148Z,5.63
2019-01-21T16:09:57.537Z,0.00
2019-01-21T16:11:21.484Z,0.00
2019-01-21T16:11:57.534Z,0.00
2019-01-21T16:12:58.045Z,0.00
2019-01-21T16:14:00.043Z,0.00
2019-01-21T16:15:12.069Z,0.00
2019-01-21T16:16:04.533Z,0.00
2019-01-21T16:17:19.583Z,0.00
2019-01-21T16:17:58.573Z,0.00
2019-01-21T16:19:00.529Z,0.00
2019-01-21T16:20:00.857Z,0.00
2019-01-21T16:20:57.324Z,0.00
2019-01-21T16:21:58.525Z,0.00
2019-01-21T16:23:01.534Z,0.00
2019-01-21T16:23:59.530Z,0.00
2019-01-21T16:25:02.049Z,0.00
2019-01-21T16:26:03.023Z,0.00
2019-01-21T16:27:00.521Z,0.00
2019-01-21T16:28:27.568Z,0.00
2019-01-21T16:28:58.775Z,0.00
2019-01-21T16:30:09.788Z,0.00
2019-01-21T16:31:03.060Z,0.00
2019-01-21T16:32:02.030Z,0.00
2019-01-21T16:33:00.024Z,0.00
2019-01-21T16:34:01.574Z,0.00
2019-01-21T16:35:01.499Z,0.00
2019-01-21T16:36:01.879Z,0.00
2019-01-21T16:37:00.212Z,0.00
2019-01-21T16:38:02.030Z,0.00
2019-01-21T16:39:02.550Z,0.00
2019-01-21T16:40:00.747Z,0.00
2019-01-21T16:41:00.986Z,0.00
2019-01-21T16:42:03.035Z,0.00
2019-01-21T16:43:03.042Z,0.00
2019-01-21T16:44:02.491Z,0.00
2019-01-21T16:45:03.551Z,0.00
2019-01-21T16:46:03.538Z,0.00
2019-01-21T16:47:03.128Z,0.00
2019-01-21T16:48:03.202Z,0.00
2019-01-21T16:49:04.045Z,0.00
2019-01-21T16:50:06.072Z,0.00
2019-01-21T16:51:05.020Z,0.00
2019-01-21T16:52:07.494Z,0.00
2019-01-21T16:53:02.957Z,0.00
2019-01-21T16:54:03.189Z,0.00
2019-01-21T16:55:04.313Z,0.00
2019-01-21T16:56:05.991Z,0.00
2019-01-21T16:57:06.532Z,0.00
2019-01-21T16:58:05.541Z,0.00
2019-01-21T16:59:04.340Z,0.00
2019-01-21T17:00:06.061Z,0.00
2019-01-21T17:01:06.032Z,0.00
2019-01-21T17:02:08.030Z,0.00
2019-01-21T17:03:04.532Z,0.00
2019-01-21T17:04:07.495Z,0.00
2019-01-21T17:05:08.949Z,0.00
2019-01-21T17:06:06.556Z,0.00
2019-01-21T17:07:08.525Z,0.00
2019-01-21T17:08:07.035Z,0.00
2019-01-21T17:09:06.769Z,0.00
2019-01-21T17:10:07.566Z,0.00
2019-01-21T17:11:05.902Z,0.00
2019-01-21T17:12:22.105Z,0.00
2019-01-21T17:13:09.072Z,0.00
2019-01-21T17:14:09.036Z,0.00
2019-01-21T17:15:08.538Z,0.00
2019-01-21T17:16:06.745Z,0.00
2019-01-21T17:17:07.946Z,0.00
2019-01-21T17:18:12.990Z,0.00
2019-01-21T17:19:09.251Z,0.00
2019-01-21T17:21:41.132Z,0.00
2019-01-21T17:22:56.380Z,0.00
2019-01-21T17:23:40.704Z,0.00
2019-01-21T17:25:02.629Z,0.00
2019-01-21T17:25:41.660Z,0.00
2019-01-21T17:26:43.634Z,0.00
2019-01-21T17:27:40.848Z,0.00
2019-01-21T17:28:44.948Z,0.00
2019-01-21T17:29:43.586Z,0.00
2019-01-21T17:30:43.671Z,0.00
2019-01-21T17:31:44.866Z,0.00
2019-01-21T17:33:10.379Z,0.00
2019-01-21T17:33:46.108Z,0.00
2019-01-21T17:34:44.089Z,0.00
2019-01-21T17:35:41.550Z,0.00
2019-01-21T17:36:44.393Z,0.00
2019-01-21T17:37:45.084Z,0.00
2019-01-21T17:38:44.642Z,0.00
2019-01-21T17:39:46.868Z,0.00
2019-01-21T17:40:42.429Z,0.00
2019-01-21T17:41:44.175Z,0.00
2019-01-21T17:42:45.582Z,0.00
2019-01-21T17:43:43.620Z,0.00
2019-01-21T17:44:45.588Z,0.00
2019-01-21T17:45:48.589Z,0.00
2019-01-21T17:46:44.098Z,0.00
2019-01-21T17:47:43.560Z,0.00
2019-01-21T17:49:09.632Z,0.00
2019-01-21T17:49:47.629Z,0.00
2019-01-21T17:50:44.691Z,0.00
2019-01-21T17:51:46.132Z,0.00
2019-01-21T17:52:44.326Z,0.00
2019-01-21T17:53:53.473Z,0.00
2019-01-21T17:54:44.709Z,0.00
2019-01-21T17:55:46.080Z,0.00
2019-01-21T17:57:22.010Z,0.00
2019-01-21T17:57:46.788Z,0.00
2019-01-21T17:58:47.153Z,0.00
2019-01-21T17:59:48.075Z,0.00
2019-01-21T18:00:49.633Z,0.00
2019-01-21T18:01:47.080Z,0.00
2019-01-21T18:02:47.579Z,0.00
2019-01-21T18:03:47.634Z,0.00
2019-01-21T18:04:48.128Z,0.00
2019-01-21T18:05:50.092Z,0.00
2019-01-21T18:07:02.629Z,0.00
2019-01-21T18:07:46.932Z,0.00
2019-01-21T18:08:49.129Z,0.00
2019-01-21T18:09:47.342Z,0.00
2019-01-21T18:10:49.169Z,0.00
2019-01-21T18:12:03.635Z,0.00
2019-01-21T18:12:51.079Z,0.00
2019-01-21T18:13:49.628Z,0.00
2019-01-21T18:14:49.102Z,0.00
2019-01-21T18:15:50.748Z,0.00
2019-01-21T18:16:49.591Z,0.00
2019-01-21T18:18:11.582Z,0.00
2019-01-21T18:18:49.925Z,0.00
2019-01-21T18:19:53.600Z,0.00
2019-01-21T18:20:51.128Z,0.00
2019-01-21T18:21:51.131Z,0.00
2019-01-21T18:22:53.147Z,0.00
2019-01-21T18:23:53.107Z,0.00
2019-01-21T18:24:49.702Z,0.00
2019-01-21T18:25:49.909Z,0.00
2019-01-21T18:26:51.580Z,0.00
2019-01-21T18:27:52.137Z,0.00
2019-01-21T18:28:52.153Z,0.00
2019-01-21T18:29:52.130Z,0.00
2019-01-21T18:30:50.708Z,0.00
2019-01-21T18:31:52.633Z,0.00
2019-01-21T18:33:03.577Z,0.00
2019-01-21T18:33:51.319Z,0.00
2019-01-21T18:34:51.497Z,0.00
2019-01-21T18:35:55.627Z,0.00
2019-01-21T18:36:55.887Z,0.00
2019-01-21T18:37:53.080Z,0.00
2019-01-21T18:38:54.140Z,0.00
2019-01-21T18:39:53.086Z,0.00
2019-01-21T18:40:52.565Z,0.00
2019-01-21T18:41:53.760Z,0.00
2019-01-21T18:42:55.054Z,0.00
2019-01-21T18:43:56.735Z,0.00
2019-01-21T18:44:54.693Z,0.00
2019-01-21T18:47:29.380Z,0.00
2019-01-21T18:48:26.478Z,0.00
2019-01-21T18:49:27.589Z,0.00
2019-01-21T18:50:27.824Z,0.00
2019-01-21T18:51:27.022Z,0.00
2019-01-21T18:52:29.092Z,0.00
2019-01-21T18:53:28.068Z,0.00
2019-01-21T18:54:27.449Z,0.00
2019-01-21T18:55:28.178Z,0.00
2019-01-21T18:56:49.647Z,0.00
2019-01-21T18:57:28.624Z,0.00
2019-01-21T18:58:27.078Z,0.00
2019-01-21T18:59:29.114Z,0.00
2019-01-21T19:00:29.306Z,0.00
2019-01-21T19:01:28.184Z,0.00
2019-01-21T19:02:29.672Z,0.00
2019-01-21T19:03:32.273Z,0.00
2019-01-21T19:04:28.614Z,0.00
2019-01-21T19:05:30.077Z,0.00
2019-01-21T19:06:29.574Z,0.00
2019-01-21T19:07:29.864Z,0.00
2019-01-21T19:08:30.623Z,0.00
2019-01-21T19:09:54.074Z,0.00
2019-01-21T19:10:45.859Z,0.00
2019-01-21T19:11:31.147Z,0.00
2019-01-21T19:12:32.357Z,0.00
2019-01-21T19:13:29.561Z,0.00
2019-01-21T19:14:33.659Z,0.00
2019-01-21T19:15:34.575Z,0.00
2019-01-21T19:16:33.072Z,0.00
2019-01-21T19:17:45.620Z,0.00
2019-01-21T19:18:33.568Z,0.00
2019-01-21T19:19:55.115Z,0.00
2019-01-21T19:20:30.781Z,0.00
2019-01-21T19:21:30.664Z,0.00
2019-01-21T19:22:33.347Z,0.00
2019-01-21T19:23:38.644Z,0.00
2019-01-21T19:24:39.711Z,0.00
2019-01-21T19:25:35.159Z,0.00
2019-01-21T19:26:31.489Z,0.00
2019-01-21T19:27:36.140Z,0.00
2019-01-21T19:28:35.623Z,0.00
2019-01-21T19:29:33.644Z,0.00